sensor_id;sensor_type;location;lat;lon;timestamp;P1;durP1;ratioP1;P2;durP2;ratioP2
41952;SDS011;63613;28.200;112.870;2023-08-17T00:00:03;19.85;;;18.05;;
41952;SDS011;63613;28.200;112.870;2023-08-17T00:02:33;18.50;;;16.90;;
41952;SDS011;63613;28.200;112.870;2023-08-17T00:05:00;18.92;;;17.17;;
41952;SDS011;63613;28.200;112.870;2023-08-17T00:07:27;19.85;;;18.00;;
41952;SDS011;63613;28.200;112.870;2023-08-17T00:10:14;19.55;;;17.85;;
41952;SDS011;63613;28.200;112.870;2023-08-17T00:12:40;21.20;;;19.13;;
41952;SDS011;63613;28.200;112.870;2023-08-17T00:15:07;20.58;;;18.67;;
41952;SDS011;63613;28.200;112.870;2023-08-17T00:17:34;20.48;;;18.73;;
41952;SDS011;63613;28.200;112.870;2023-08-17T00:20:01;19.45;;;17.75;;
41952;SDS011;63613;28.200;112.870;2023-08-17T00:22:30;19.88;;;18.13;;
41952;SDS011;63613;28.200;112.870;2023-08-17T00:24:57;20.10;;;18.23;;
41952;SDS011;63613;28.200;112.870;2023-08-17T00:27:44;20.17;;;18.38;;
41952;SDS011;63613;28.200;112.870;2023-08-17T00:30:10;18.40;;;16.65;;
41952;SDS011;63613;28.200;112.870;2023-08-17T00:32:38;19.42;;;17.73;;
41952;SDS011;63613;28.200;112.870;2023-08-17T00:35:04;18.98;;;17.33;;
41952;SDS011;63613;28.200;112.870;2023-08-17T00:37:32;18.38;;;16.73;;
41952;SDS011;63613;28.200;112.870;2023-08-17T00:39:58;18.58;;;16.80;;
41952;SDS011;63613;28.200;112.870;2023-08-17T00:42:25;19.67;;;17.80;;
41952;SDS011;63613;28.200;112.870;2023-08-17T00:44:52;19.40;;;17.65;;
41952;SDS011;63613;28.200;112.870;2023-08-17T00:47:19;19.05;;;17.30;;
41952;SDS011;63613;28.200;112.870;2023-08-17T00:49:46;17.77;;;16.13;;
41952;SDS011;63613;28.200;112.870;2023-08-17T00:52:13;19.80;;;18.05;;
41952;SDS011;63613;28.200;112.870;2023-08-17T00:54:40;19.13;;;17.42;;
41952;SDS011;63613;28.200;112.870;2023-08-17T00:57:08;19.63;;;17.90;;
41952;SDS011;63613;28.200;112.870;2023-08-17T00:59:54;19.98;;;18.15;;
41952;SDS011;63613;28.200;112.870;2023-08-17T01:02:22;19.75;;;18.15;;
41952;SDS011;63613;28.200;112.870;2023-08-17T01:04:49;19.95;;;18.15;;
41952;SDS011;63613;28.200;112.870;2023-08-17T01:07:16;19.92;;;18.13;;
41952;SDS011;63613;28.200;112.870;2023-08-17T01:09:43;19.40;;;17.60;;
41952;SDS011;63613;28.200;112.870;2023-08-17T01:15:05;18.40;;;16.80;;
41952;SDS011;63613;28.200;112.870;2023-08-17T01:17:43;18.40;;;16.75;;
41952;SDS011;63613;28.200;112.870;2023-08-17T01:20:28;17.88;;;16.27;;
41952;SDS011;63613;28.200;112.870;2023-08-17T01:23:02;16.83;;;15.32;;
41952;SDS011;63613;28.200;112.870;2023-08-17T01:25:30;18.00;;;16.38;;
41952;SDS011;63613;28.200;112.870;2023-08-17T01:28:02;18.00;;;16.40;;
41952;SDS011;63613;28.200;112.870;2023-08-17T01:30:30;17.05;;;15.60;;
41952;SDS011;63613;28.200;112.870;2023-08-17T01:33:03;16.83;;;15.38;;
41952;SDS011;63613;28.200;112.870;2023-08-17T01:35:36;18.42;;;16.73;;
41952;SDS011;63613;28.200;112.870;2023-08-17T01:38:13;18.70;;;16.88;;
41952;SDS011;63613;28.200;112.870;2023-08-17T01:40:44;19.65;;;17.92;;
41952;SDS011;63613;28.200;112.870;2023-08-17T01:43:13;18.50;;;16.90;;
41952;SDS011;63613;28.200;112.870;2023-08-17T01:45:41;18.65;;;16.88;;
41952;SDS011;63613;28.200;112.870;2023-08-17T01:48:08;19.25;;;17.45;;
41952;SDS011;63613;28.200;112.870;2023-08-17T01:50:35;18.63;;;17.02;;
41952;SDS011;63613;28.200;112.870;2023-08-17T01:53:02;17.08;;;15.57;;
41952;SDS011;63613;28.200;112.870;2023-08-17T01:55:29;17.98;;;16.17;;
41952;SDS011;63613;28.200;112.870;2023-08-17T01:57:57;30.55;;;13.73;;
41952;SDS011;63613;28.200;112.870;2023-08-17T02:00:24;15.18;;;12.38;;
41952;SDS011;63613;28.200;112.870;2023-08-17T02:02:50;15.18;;;12.95;;
41952;SDS011;63613;28.200;112.870;2023-08-17T02:05:17;15.30;;;13.80;;
41952;SDS011;63613;28.200;112.870;2023-08-17T02:08:04;14.80;;;13.10;;
41952;SDS011;63613;28.200;112.870;2023-08-17T02:10:33;14.68;;;13.10;;
41952;SDS011;63613;28.200;112.870;2023-08-17T02:13:02;16.90;;;13.52;;
41952;SDS011;63613;28.200;112.870;2023-08-17T02:15:29;13.45;;;12.25;;
41952;SDS011;63613;28.200;112.870;2023-08-17T02:18:00;14.35;;;13.05;;
41952;SDS011;63613;28.200;112.870;2023-08-17T02:20:27;14.38;;;12.98;;
41952;SDS011;63613;28.200;112.870;2023-08-17T02:22:54;14.10;;;12.80;;
41952;SDS011;63613;28.200;112.870;2023-08-17T02:25:21;13.60;;;12.30;;
41952;SDS011;63613;28.200;112.870;2023-08-17T02:27:47;13.10;;;11.80;;
41952;SDS011;63613;28.200;112.870;2023-08-17T02:30:14;13.65;;;12.45;;
41952;SDS011;63613;28.200;112.870;2023-08-17T02:32:41;14.00;;;12.77;;
41952;SDS011;63613;28.200;112.870;2023-08-17T02:35:08;12.73;;;11.43;;
41952;SDS011;63613;28.200;112.870;2023-08-17T02:37:35;13.90;;;12.60;;
41952;SDS011;63613;28.200;112.870;2023-08-17T02:40:02;13.75;;;12.15;;
41952;SDS011;63613;28.200;112.870;2023-08-17T02:42:29;13.43;;;12.05;;
41952;SDS011;63613;28.200;112.870;2023-08-17T02:44:56;13.45;;;12.07;;
41952;SDS011;63613;28.200;112.870;2023-08-17T02:47:23;14.57;;;13.27;;
41952;SDS011;63613;28.200;112.870;2023-08-17T02:49:50;15.55;;;14.05;;
41952;SDS011;63613;28.200;112.870;2023-08-17T02:52:17;14.45;;;13.15;;
41952;SDS011;63613;28.200;112.870;2023-08-17T02:54:43;13.60;;;12.48;;
41952;SDS011;63613;28.200;112.870;2023-08-17T02:57:10;13.93;;;12.70;;
41952;SDS011;63613;28.200;112.870;2023-08-17T02:59:37;14.65;;;13.40;;
41952;SDS011;63613;28.200;112.870;2023-08-17T03:02:04;13.23;;;12.02;;
41952;SDS011;63613;28.200;112.870;2023-08-17T03:04:31;14.90;;;13.50;;
41952;SDS011;63613;28.200;112.870;2023-08-17T03:06:58;13.75;;;12.45;;
41952;SDS011;63613;28.200;112.870;2023-08-17T03:09:25;13.32;;;12.13;;
41952;SDS011;63613;28.200;112.870;2023-08-17T03:11:52;14.23;;;13.00;;
41952;SDS011;63613;28.200;112.870;2023-08-17T03:14:19;14.70;;;13.38;;
41952;SDS011;63613;28.200;112.870;2023-08-17T03:16:47;14.68;;;13.38;;
41952;SDS011;63613;28.200;112.870;2023-08-17T03:19:14;14.43;;;13.02;;
41952;SDS011;63613;28.200;112.870;2023-08-17T03:21:41;14.65;;;13.02;;
41952;SDS011;63613;28.200;112.870;2023-08-17T03:24:08;14.00;;;12.70;;
41952;SDS011;63613;28.200;112.870;2023-08-17T03:26:35;14.60;;;13.20;;
41952;SDS011;63613;28.200;112.870;2023-08-17T03:29:02;14.43;;;13.10;;
41952;SDS011;63613;28.200;112.870;2023-08-17T03:31:29;13.23;;;12.07;;
41952;SDS011;63613;28.200;112.870;2023-08-17T03:33:56;14.15;;;12.85;;
41952;SDS011;63613;28.200;112.870;2023-08-17T03:36:43;13.90;;;12.57;;
41952;SDS011;63613;28.200;112.870;2023-08-17T03:39:09;18.08;;;14.95;;
41952;SDS011;63613;28.200;112.870;2023-08-17T03:41:36;18.77;;;13.82;;
41952;SDS011;63613;28.200;112.870;2023-08-17T03:44:04;22.35;;;14.38;;
41952;SDS011;63613;28.200;112.870;2023-08-17T03:46:32;22.70;;;13.88;;
41952;SDS011;63613;28.200;112.870;2023-08-17T03:48:59;15.43;;;12.52;;
41952;SDS011;63613;28.200;112.870;2023-08-17T03:51:26;16.75;;;13.43;;
41952;SDS011;63613;28.200;112.870;2023-08-17T03:53:52;22.17;;;14.10;;
41952;SDS011;63613;28.200;112.870;2023-08-17T03:56:19;18.23;;;13.77;;
41952;SDS011;63613;28.200;112.870;2023-08-17T03:58:46;19.30;;;14.63;;
41952;SDS011;63613;28.200;112.870;2023-08-17T04:01:13;18.70;;;14.82;;
41952;SDS011;63613;28.200;112.870;2023-08-17T04:03:40;20.20;;;14.75;;
41952;SDS011;63613;28.200;112.870;2023-08-17T04:06:07;23.17;;;14.93;;
41952;SDS011;63613;28.200;112.870;2023-08-17T04:08:38;23.95;;;15.95;;
41952;SDS011;63613;28.200;112.870;2023-08-17T04:11:05;22.60;;;16.13;;
41952;SDS011;63613;28.200;112.870;2023-08-17T04:13:32;25.92;;;17.38;;
41952;SDS011;63613;28.200;112.870;2023-08-17T04:15:59;27.33;;;18.33;;
41952;SDS011;63613;28.200;112.870;2023-08-17T04:18:27;30.85;;;18.88;;
41952;SDS011;63613;28.200;112.870;2023-08-17T04:20:54;28.15;;;18.67;;
41952;SDS011;63613;28.200;112.870;2023-08-17T04:23:20;30.75;;;19.75;;
41952;SDS011;63613;28.200;112.870;2023-08-17T04:25:47;37.78;;;22.33;;
41952;SDS011;63613;28.200;112.870;2023-08-17T04:28:15;39.08;;;23.60;;
41952;SDS011;63613;28.200;112.870;2023-08-17T04:30:41;43.80;;;25.02;;
41952;SDS011;63613;28.200;112.870;2023-08-17T04:33:10;39.95;;;23.67;;
41952;SDS011;63613;28.200;112.870;2023-08-17T04:35:39;44.38;;;26.50;;
41952;SDS011;63613;28.200;112.870;2023-08-17T04:38:06;48.22;;;26.08;;
41952;SDS011;63613;28.200;112.870;2023-08-17T04:40:53;54.00;;;29.10;;
41952;SDS011;63613;28.200;112.870;2023-08-17T04:43:20;53.25;;;30.38;;
41952;SDS011;63613;28.200;112.870;2023-08-17T04:45:47;49.75;;;29.20;;
41952;SDS011;63613;28.200;112.870;2023-08-17T04:48:14;45.95;;;28.38;;
41952;SDS011;63613;28.200;112.870;2023-08-17T04:50:41;50.45;;;28.63;;
41952;SDS011;63613;28.200;112.870;2023-08-17T04:53:07;52.58;;;29.55;;
41952;SDS011;63613;28.200;112.870;2023-08-17T04:55:36;44.70;;;27.00;;
41952;SDS011;63613;28.200;112.870;2023-08-17T04:58:23;44.50;;;26.02;;
41952;SDS011;63613;28.200;112.870;2023-08-17T05:00:50;47.58;;;29.00;;
41952;SDS011;63613;28.200;112.870;2023-08-17T05:03:17;49.25;;;28.90;;
41952;SDS011;63613;28.200;112.870;2023-08-17T05:06:04;45.70;;;27.92;;
41952;SDS011;63613;28.200;112.870;2023-08-17T05:08:31;40.83;;;25.63;;
41952;SDS011;63613;28.200;112.870;2023-08-17T05:10:58;41.38;;;25.95;;
41952;SDS011;63613;28.200;112.870;2023-08-17T05:13:25;41.75;;;28.27;;
41952;SDS011;63613;28.200;112.870;2023-08-17T05:15:51;38.33;;;26.10;;
41952;SDS011;63613;28.200;112.870;2023-08-17T05:18:18;41.35;;;26.25;;
41952;SDS011;63613;28.200;112.870;2023-08-17T05:20:45;41.72;;;27.15;;
41952;SDS011;63613;28.200;112.870;2023-08-17T05:23:15;38.72;;;24.75;;
41952;SDS011;63613;28.200;112.870;2023-08-17T05:25:42;37.50;;;24.63;;
41952;SDS011;63613;28.200;112.870;2023-08-17T05:28:16;40.25;;;24.42;;
41952;SDS011;63613;28.200;112.870;2023-08-17T05:31:06;35.95;;;23.85;;
41952;SDS011;63613;28.200;112.870;2023-08-17T05:33:34;33.05;;;23.42;;
41952;SDS011;63613;28.200;112.870;2023-08-17T05:36:00;34.08;;;23.77;;
41952;SDS011;63613;28.200;112.870;2023-08-17T05:38:29;31.90;;;22.90;;
41952;SDS011;63613;28.200;112.870;2023-08-17T05:40:56;32.33;;;21.33;;
41952;SDS011;63613;28.200;112.870;2023-08-17T05:43:23;31.02;;;21.10;;
41952;SDS011;63613;28.200;112.870;2023-08-17T05:45:51;33.25;;;22.90;;
41952;SDS011;63613;28.200;112.870;2023-08-17T05:48:18;28.30;;;21.52;;
41952;SDS011;63613;28.200;112.870;2023-08-17T05:50:49;28.42;;;21.13;;
41952;SDS011;63613;28.200;112.870;2023-08-17T05:53:16;25.50;;;19.60;;
41952;SDS011;63613;28.200;112.870;2023-08-17T05:55:47;28.50;;;20.98;;
41952;SDS011;63613;28.200;112.870;2023-08-17T05:58:15;28.35;;;21.58;;
41952;SDS011;63613;28.200;112.870;2023-08-17T06:00:42;27.67;;;21.27;;
41952;SDS011;63613;28.200;112.870;2023-08-17T06:03:09;24.85;;;17.95;;
41952;SDS011;63613;28.200;112.870;2023-08-17T06:05:36;24.42;;;17.95;;
41952;SDS011;63613;28.200;112.870;2023-08-17T06:08:23;24.40;;;18.55;;
41952;SDS011;63613;28.200;112.870;2023-08-17T06:10:50;23.25;;;17.40;;
41952;SDS011;63613;28.200;112.870;2023-08-17T06:13:17;22.35;;;17.25;;
41952;SDS011;63613;28.200;112.870;2023-08-17T06:15:45;25.25;;;18.90;;
41952;SDS011;63613;28.200;112.870;2023-08-17T06:18:12;21.77;;;17.67;;
41952;SDS011;63613;28.200;112.870;2023-08-17T06:20:40;21.80;;;17.80;;
41952;SDS011;63613;28.200;112.870;2023-08-17T06:23:07;22.15;;;18.13;;
41952;SDS011;63613;28.200;112.870;2023-08-17T06:25:34;25.38;;;19.58;;
41952;SDS011;63613;28.200;112.870;2023-08-17T06:28:02;26.17;;;18.48;;
41952;SDS011;63613;28.200;112.870;2023-08-17T06:30:29;26.05;;;19.02;;
41952;SDS011;63613;28.200;112.870;2023-08-17T06:32:57;24.02;;;18.92;;
41952;SDS011;63613;28.200;112.870;2023-08-17T06:35:45;22.38;;;18.17;;
41952;SDS011;63613;28.200;112.870;2023-08-17T06:38:12;21.45;;;17.50;;
41952;SDS011;63613;28.200;112.870;2023-08-17T06:40:41;24.40;;;18.98;;
41952;SDS011;63613;28.200;112.870;2023-08-17T06:43:12;31.92;;;23.73;;
41952;SDS011;63613;28.200;112.870;2023-08-17T06:45:44;32.30;;;21.20;;
41952;SDS011;63613;28.200;112.870;2023-08-17T06:48:11;23.73;;;17.35;;
41952;SDS011;63613;28.200;112.870;2023-08-17T06:50:41;21.27;;;16.70;;
41952;SDS011;63613;28.200;112.870;2023-08-17T06:53:08;22.92;;;16.55;;
41952;SDS011;63613;28.200;112.870;2023-08-17T06:55:39;19.35;;;16.10;;
41952;SDS011;63613;28.200;112.870;2023-08-17T06:58:07;20.38;;;15.32;;
41952;SDS011;63613;28.200;112.870;2023-08-17T07:00:54;19.70;;;15.45;;
41952;SDS011;63613;28.200;112.870;2023-08-17T07:03:24;20.27;;;15.48;;
41952;SDS011;63613;28.200;112.870;2023-08-17T07:05:51;19.48;;;14.88;;
41952;SDS011;63613;28.200;112.870;2023-08-17T07:08:17;15.70;;;14.07;;
41952;SDS011;63613;28.200;112.870;2023-08-17T07:10:44;15.82;;;14.20;;
41952;SDS011;63613;28.200;112.870;2023-08-17T07:13:11;15.90;;;14.00;;
41952;SDS011;63613;28.200;112.870;2023-08-17T07:15:39;16.75;;;14.65;;
41952;SDS011;63613;28.200;112.870;2023-08-17T07:18:21;18.90;;;15.02;;
41952;SDS011;63613;28.200;112.870;2023-08-17T07:20:48;15.25;;;13.70;;
41952;SDS011;63613;28.200;112.870;2023-08-17T07:23:15;16.80;;;13.38;;
41952;SDS011;63613;28.200;112.870;2023-08-17T07:25:43;17.02;;;14.18;;
41952;SDS011;63613;28.200;112.870;2023-08-17T07:28:11;20.08;;;14.90;;
41952;SDS011;63613;28.200;112.870;2023-08-17T07:30:42;16.60;;;13.93;;
41952;SDS011;63613;28.200;112.870;2023-08-17T07:33:12;14.57;;;12.43;;
41952;SDS011;63613;28.200;112.870;2023-08-17T07:35:40;15.45;;;12.65;;
41952;SDS011;63613;28.200;112.870;2023-08-17T07:38:07;18.67;;;14.02;;
41952;SDS011;63613;28.200;112.870;2023-08-17T07:40:34;17.15;;;13.75;;
41952;SDS011;63613;28.200;112.870;2023-08-17T07:43:02;23.15;;;16.10;;
41952;SDS011;63613;28.200;112.870;2023-08-17T07:45:29;15.85;;;13.57;;
41952;SDS011;63613;28.200;112.870;2023-08-17T07:47:56;15.40;;;13.30;;
41952;SDS011;63613;28.200;112.870;2023-08-17T07:50:43;16.50;;;13.10;;
41952;SDS011;63613;28.200;112.870;2023-08-17T07:53:13;15.35;;;13.70;;
41952;SDS011;63613;28.200;112.870;2023-08-17T07:55:44;16.50;;;12.77;;
41952;SDS011;63613;28.200;112.870;2023-08-17T07:58:11;14.77;;;12.63;;
41952;SDS011;63613;28.200;112.870;2023-08-17T08:00:40;14.25;;;12.38;;
41952;SDS011;63613;28.200;112.870;2023-08-17T08:03:07;15.95;;;13.73;;
41952;SDS011;63613;28.200;112.870;2023-08-17T08:05:54;14.10;;;12.00;;
41952;SDS011;63613;28.200;112.870;2023-08-17T08:08:21;14.30;;;12.50;;
41952;SDS011;63613;28.200;112.870;2023-08-17T08:10:52;13.90;;;11.90;;
41952;SDS011;63613;28.200;112.870;2023-08-17T08:13:20;12.88;;;11.57;;
41952;SDS011;63613;28.200;112.870;2023-08-17T08:15:46;13.45;;;12.05;;
41952;SDS011;63613;28.200;112.870;2023-08-17T08:18:34;14.32;;;13.10;;
41952;SDS011;63613;28.200;112.870;2023-08-17T08:21:03;15.90;;;14.30;;
41952;SDS011;63613;28.200;112.870;2023-08-17T08:23:53;16.63;;;15.00;;
41952;SDS011;63613;28.200;112.870;2023-08-17T08:26:21;16.30;;;14.90;;
41952;SDS011;63613;28.200;112.870;2023-08-17T08:28:48;16.08;;;14.60;;
41952;SDS011;63613;28.200;112.870;2023-08-17T08:31:15;16.05;;;14.48;;
41952;SDS011;63613;28.200;112.870;2023-08-17T08:33:44;16.23;;;14.77;;
41952;SDS011;63613;28.200;112.870;2023-08-17T08:36:10;15.48;;;14.13;;
41952;SDS011;63613;28.200;112.870;2023-08-17T08:38:41;15.57;;;14.07;;
41952;SDS011;63613;28.200;112.870;2023-08-17T08:41:08;15.95;;;14.55;;
41952;SDS011;63613;28.200;112.870;2023-08-17T08:43:40;13.27;;;12.07;;
41952;SDS011;63613;28.200;112.870;2023-08-17T08:46:06;12.32;;;11.23;;
41952;SDS011;63613;28.200;112.870;2023-08-17T08:48:37;14.13;;;12.77;;
41952;SDS011;63613;28.200;112.870;2023-08-17T08:51:07;12.43;;;11.10;;
41952;SDS011;63613;28.200;112.870;2023-08-17T08:53:39;12.82;;;11.73;;
41952;SDS011;63613;28.200;112.870;2023-08-17T08:56:13;11.90;;;10.90;;
41952;SDS011;63613;28.200;112.870;2023-08-17T08:58:46;11.65;;;10.55;;
41952;SDS011;63613;28.200;112.870;2023-08-17T09:01:33;11.55;;;10.65;;
41952;SDS011;63613;28.200;112.870;2023-08-17T09:04:02;11.80;;;10.70;;
41952;SDS011;63613;28.200;112.870;2023-08-17T09:06:30;11.80;;;10.70;;
41952;SDS011;63613;28.200;112.870;2023-08-17T09:08:57;11.30;;;10.35;;
41952;SDS011;63613;28.200;112.870;2023-08-17T09:11:49;11.35;;;10.35;;
41952;SDS011;63613;28.200;112.870;2023-08-17T09:14:16;13.73;;;12.63;;
41952;SDS011;63613;28.200;112.870;2023-08-17T09:16:42;15.23;;;13.93;;
41952;SDS011;63613;28.200;112.870;2023-08-17T09:19:11;15.05;;;13.75;;
41952;SDS011;63613;28.200;112.870;2023-08-17T09:21:41;14.75;;;13.55;;
41952;SDS011;63613;28.200;112.870;2023-08-17T09:24:07;13.65;;;12.55;;
41952;SDS011;63613;28.200;112.870;2023-08-17T09:26:35;14.07;;;12.77;;
41952;SDS011;63613;28.200;112.870;2023-08-17T09:29:26;14.52;;;13.18;;
41952;SDS011;63613;28.200;112.870;2023-08-17T09:31:52;16.90;;;15.38;;
41952;SDS011;63613;28.200;112.870;2023-08-17T09:34:19;15.05;;;13.75;;
41952;SDS011;63613;28.200;112.870;2023-08-17T09:36:46;14.63;;;13.43;;
41952;SDS011;63613;28.200;112.870;2023-08-17T09:39:16;14.75;;;13.45;;
41952;SDS011;63613;28.200;112.870;2023-08-17T09:41:43;13.85;;;12.75;;
41952;SDS011;63613;28.200;112.870;2023-08-17T09:44:11;13.18;;;12.07;;
41952;SDS011;63613;28.200;112.870;2023-08-17T09:46:39;14.57;;;13.30;;
41952;SDS011;63613;28.200;112.870;2023-08-17T09:49:09;15.57;;;14.27;;
41952;SDS011;63613;28.200;112.870;2023-08-17T09:51:36;15.73;;;14.35;;
41952;SDS011;63613;28.200;112.870;2023-08-17T09:54:03;14.63;;;13.43;;
41952;SDS011;63613;28.200;112.870;2023-08-17T09:56:30;17.08;;;15.57;;
41952;SDS011;63613;28.200;112.870;2023-08-17T09:58:58;16.60;;;15.10;;
41952;SDS011;63613;28.200;112.870;2023-08-17T10:01:28;16.08;;;14.68;;
41952;SDS011;63613;28.200;112.870;2023-08-17T10:03:55;15.65;;;14.27;;
41952;SDS011;63613;28.200;112.870;2023-08-17T10:06:24;17.42;;;15.82;;
41952;SDS011;63613;28.200;112.870;2023-08-17T10:08:54;17.52;;;15.93;;
41952;SDS011;63613;28.200;112.870;2023-08-17T10:11:22;15.75;;;14.30;;
41952;SDS011;63613;28.200;112.870;2023-08-17T10:13:59;15.98;;;14.27;;
41952;SDS011;63613;28.200;112.870;2023-08-17T10:16:48;16.45;;;14.85;;
41952;SDS011;63613;28.200;112.870;2023-08-17T10:22:16;16.70;;;15.18;;
41952;SDS011;63613;28.200;112.870;2023-08-17T10:24:45;16.70;;;14.98;;
41952;SDS011;63613;28.200;112.870;2023-08-17T10:27:13;17.02;;;15.52;;
41952;SDS011;63613;28.200;112.870;2023-08-17T10:29:41;16.50;;;14.90;;
41952;SDS011;63613;28.200;112.870;2023-08-17T10:32:09;16.52;;;15.00;;
41952;SDS011;63613;28.200;112.870;2023-08-17T10:34:40;16.65;;;15.10;;
41952;SDS011;63613;28.200;112.870;2023-08-17T10:37:08;16.98;;;15.30;;
41952;SDS011;63613;28.200;112.870;2023-08-17T10:39:36;18.17;;;16.58;;
41952;SDS011;63613;28.200;112.870;2023-08-17T10:42:10;17.50;;;15.65;;
41952;SDS011;63613;28.200;112.870;2023-08-17T10:44:49;17.63;;;15.98;;
41952;SDS011;63613;28.200;112.870;2023-08-17T10:49:50;17.08;;;15.38;;
41952;SDS011;63613;28.200;112.870;2023-08-17T10:52:31;18.27;;;15.93;;
41952;SDS011;63613;28.200;112.870;2023-08-17T10:55:01;17.50;;;15.57;;
41952;SDS011;63613;28.200;112.870;2023-08-17T10:57:36;17.77;;;15.93;;
41952;SDS011;63613;28.200;112.870;2023-08-17T11:00:14;16.77;;;15.18;;
41952;SDS011;63613;28.200;112.870;2023-08-17T11:02:58;19.10;;;16.60;;
41952;SDS011;63613;28.200;112.870;2023-08-17T11:08:06;20.42;;;16.27;;
41952;SDS011;63613;28.200;112.870;2023-08-17T11:10:39;19.17;;;16.55;;
41952;SDS011;63613;28.200;112.870;2023-08-17T11:13:08;18.80;;;15.65;;
41952;SDS011;63613;28.200;112.870;2023-08-17T11:18:11;18.42;;;14.88;;
41952;SDS011;63613;28.200;112.870;2023-08-17T11:20:38;18.83;;;15.70;;
41952;SDS011;63613;28.200;112.870;2023-08-17T11:23:08;17.00;;;15.10;;
41952;SDS011;63613;28.200;112.870;2023-08-17T11:25:55;18.23;;;14.95;;
41952;SDS011;63613;28.200;112.870;2023-08-17T11:28:22;18.90;;;15.23;;
41952;SDS011;63613;28.200;112.870;2023-08-17T11:31:02;16.15;;;14.45;;
41952;SDS011;63613;28.200;112.870;2023-08-17T11:33:34;18.20;;;15.00;;
41952;SDS011;63613;28.200;112.870;2023-08-17T11:36:06;17.25;;;15.18;;
41952;SDS011;63613;28.200;112.870;2023-08-17T11:38:34;19.13;;;15.68;;
41952;SDS011;63613;28.200;112.870;2023-08-17T11:41:03;18.92;;;16.58;;
41952;SDS011;63613;28.200;112.870;2023-08-17T11:43:32;18.77;;;15.88;;
41952;SDS011;63613;28.200;112.870;2023-08-17T11:46:00;17.85;;;15.90;;
41952;SDS011;63613;28.200;112.870;2023-08-17T11:48:27;17.83;;;15.70;;
41952;SDS011;63613;28.200;112.870;2023-08-17T11:50:56;20.02;;;15.73;;
41952;SDS011;63613;28.200;112.870;2023-08-17T11:53:23;16.25;;;14.55;;
41952;SDS011;63613;28.200;112.870;2023-08-17T11:55:50;18.95;;;15.27;;
41952;SDS011;63613;28.200;112.870;2023-08-17T11:58:17;17.33;;;15.35;;
41952;SDS011;63613;28.200;112.870;2023-08-17T12:00:44;17.40;;;15.70;;
41952;SDS011;63613;28.200;112.870;2023-08-17T12:03:14;18.42;;;15.98;;
41952;SDS011;63613;28.200;112.870;2023-08-17T12:05:43;19.60;;;16.75;;
41952;SDS011;63613;28.200;112.870;2023-08-17T12:08:15;17.63;;;15.68;;
41952;SDS011;63613;28.200;112.870;2023-08-17T12:10:42;17.98;;;16.02;;
41952;SDS011;63613;28.200;112.870;2023-08-17T12:13:12;20.00;;;16.38;;
41952;SDS011;63613;28.200;112.870;2023-08-17T12:15:40;16.60;;;14.75;;
41952;SDS011;63613;28.200;112.870;2023-08-17T12:18:08;18.05;;;15.80;;
41952;SDS011;63613;28.200;112.870;2023-08-17T12:20:42;21.95;;;16.08;;
41952;SDS011;63613;28.200;112.870;2023-08-17T12:23:10;20.08;;;16.83;;
41952;SDS011;63613;28.200;112.870;2023-08-17T12:25:37;20.00;;;15.93;;
41952;SDS011;63613;28.200;112.870;2023-08-17T12:28:03;19.42;;;16.40;;
41952;SDS011;63613;28.200;112.870;2023-08-17T12:30:32;18.10;;;16.08;;
41952;SDS011;63613;28.200;112.870;2023-08-17T12:33:01;18.30;;;15.88;;
41952;SDS011;63613;28.200;112.870;2023-08-17T12:35:29;17.50;;;15.68;;
41952;SDS011;63613;28.200;112.870;2023-08-17T12:37:57;18.95;;;15.65;;
41952;SDS011;63613;28.200;112.870;2023-08-17T12:40:24;19.42;;;16.42;;
41952;SDS011;63613;28.200;112.870;2023-08-17T12:42:50;18.33;;;15.70;;
41952;SDS011;63613;28.200;112.870;2023-08-17T12:45:17;17.00;;;15.13;;
41952;SDS011;63613;28.200;112.870;2023-08-17T12:47:45;18.30;;;15.00;;
41952;SDS011;63613;28.200;112.870;2023-08-17T12:50:14;17.52;;;15.52;;
41952;SDS011;63613;28.200;112.870;2023-08-17T12:52:42;18.33;;;16.15;;
41952;SDS011;63613;28.200;112.870;2023-08-17T12:55:09;16.25;;;14.57;;
41952;SDS011;63613;28.200;112.870;2023-08-17T12:57:36;18.15;;;15.45;;
41952;SDS011;63613;28.200;112.870;2023-08-17T13:00:23;17.60;;;15.80;;
41952;SDS011;63613;28.200;112.870;2023-08-17T13:02:50;17.23;;;15.27;;
41952;SDS011;63613;28.200;112.870;2023-08-17T13:05:17;17.73;;;14.70;;
41952;SDS011;63613;28.200;112.870;2023-08-17T13:07:43;16.83;;;14.85;;
41952;SDS011;63613;28.200;112.870;2023-08-17T13:10:11;17.40;;;15.30;;
41952;SDS011;63613;28.200;112.870;2023-08-17T13:12:37;16.40;;;14.80;;
41952;SDS011;63613;28.200;112.870;2023-08-17T13:15:25;17.63;;;14.75;;
41952;SDS011;63613;28.200;112.870;2023-08-17T13:17:53;16.83;;;15.10;;
41952;SDS011;63613;28.200;112.870;2023-08-17T13:20:21;15.32;;;13.73;;
41952;SDS011;63613;28.200;112.870;2023-08-17T13:22:48;16.83;;;13.82;;
41952;SDS011;63613;28.200;112.870;2023-08-17T13:25:15;15.45;;;13.77;;
41952;SDS011;63613;28.200;112.870;2023-08-17T13:27:42;16.02;;;14.30;;
41952;SDS011;63613;28.200;112.870;2023-08-17T13:30:09;15.48;;;13.90;;
41952;SDS011;63613;28.200;112.870;2023-08-17T13:32:36;15.32;;;13.80;;
41952;SDS011;63613;28.200;112.870;2023-08-17T13:35:03;16.50;;;13.43;;
41952;SDS011;63613;28.200;112.870;2023-08-17T13:37:30;15.90;;;13.85;;
41952;SDS011;63613;28.200;112.870;2023-08-17T13:39:57;16.13;;;14.38;;
41952;SDS011;63613;28.200;112.870;2023-08-17T13:42:25;16.88;;;13.98;;
41952;SDS011;63613;28.200;112.870;2023-08-17T13:45:13;15.27;;;13.70;;
41952;SDS011;63613;28.200;112.870;2023-08-17T13:47:42;15.43;;;13.95;;
41952;SDS011;63613;28.200;112.870;2023-08-17T13:50:10;15.85;;;13.65;;
41952;SDS011;63613;28.200;112.870;2023-08-17T13:52:37;15.98;;;14.38;;
41952;SDS011;63613;28.200;112.870;2023-08-17T13:55:26;16.30;;;14.52;;
41952;SDS011;63613;28.200;112.870;2023-08-17T13:57:53;16.27;;;14.57;;
41952;SDS011;63613;28.200;112.870;2023-08-17T14:00:24;15.90;;;14.30;;
41952;SDS011;63613;28.200;112.870;2023-08-17T14:02:52;15.98;;;14.38;;
41952;SDS011;63613;28.200;112.870;2023-08-17T14:05:20;15.90;;;14.40;;
41952;SDS011;63613;28.200;112.870;2023-08-17T14:07:50;16.55;;;14.95;;
41952;SDS011;63613;28.200;112.870;2023-08-17T14:10:17;17.17;;;14.95;;
41952;SDS011;63613;28.200;112.870;2023-08-17T14:12:46;15.05;;;13.48;;
41952;SDS011;63613;28.200;112.870;2023-08-17T14:15:15;16.75;;;14.93;;
41952;SDS011;63613;28.200;112.870;2023-08-17T14:17:41;15.90;;;14.40;;
41952;SDS011;63613;28.200;112.870;2023-08-17T14:20:08;16.17;;;14.15;;
41952;SDS011;63613;28.200;112.870;2023-08-17T14:22:36;15.95;;;14.45;;